首页
METAR-TAF:

METAR-TAF

机场 :

Eppley Airfield

奥马哈, 內布拉斯加州, 美国

纬度: 41-18-37N, 经度: 095-53-57W, 海拔: 299米

当前天气观测

该预报发布于58分钟前的22:52 UTC
风速10节,风向
温度 32°C
湿度 59%
气压 1005 hPa
能見度: 16.1公里
多云层高于4400英尺

METAR: KOMA 162252Z 19010KT 10SM BKN044 32/23 A2968 RMK AO2 SLP041 T03170228

时间: 18:50 (23:50 UTC)

预报

该预报发布于30分钟前的23:20 UTC
预报有效从17日的 00点(UTC)到 17日的 24点(UTC)
风速11节,风向
能見度: 10公里
散云层高于24000英尺
从 17日的 0600点(UTC)
风速11节,风向
能見度: 10公里
散云层高于24000英尺
从 17日的 1300点(UTC)
风速17节,风向,有时为29节阵风
能見度: 10公里
多云层高于24000英尺

TAF: KOMA 162320Z 1700/1724 18011KT P6SM SCT240 FM170600 17011KT P6SM SCT240 WS017/20045KT FM171300 17017G29KT P6SM BKN240

超过4000个机场的气象观测和天气预报(METAR&TAF报告)。

可查询的气象台以黄色和红色小点在地图上表示。

将鼠标移到小点上方,可查看气象台名称。

然后点击查看天气观测和预报。

如需切换地图:点击带黑十字的绿色按钮放大地图;点击带横线的绿色按钮缩小地图;或者点击绿色箭头查看邻近地区的地图。


METAR-TAF: